Terminal Aerodrome Forecast
Issued by NWS Wichita, KS

Home | Current Version | Previous Version | Graphics & Text | Print | Product List | Glossary On
Versions: 1 2 3 4 5 6 7 8 9 10 11 12 13 14 15 16 17
000
FTUS43 KICT 020520
TAFICT
TAF
KICT 020520Z 0206/0306 VRB04KT P6SM SCT100
     FM020800 36008KT P6SM BKN300
     FM021000 34008KT P6SM SCT020 BKN300
     FM021400 02010KT P6SM SCT020 BKN300
     FM021600 01014KT P6SM BKN120
     FM022200 VRB04KT P6SM BKN100=

USA.gov is the U.S. government's official web portal to all federal, state and local government web resources and services.